Main page
METAR-TAF:

METAR-TAF

Airports :

Imeson Field

Jacksonville, Illinois, United States

latitude: 39-46-27N, longitude: 090-14-19W, elevation: 623 ft

Current weather observation

The report was made 31 minutes ago, at 04:55 UTC
Wind 8 mph from the South
Temperature 55°F
Humidity 38%
Pressure 29.91 in. Hg
Visibility: 10 miles
Clear sky

METAR: KIJX 230455Z AUTO 17007KT 10SM CLR 13/M01 A2991 RMK AO2 T01331006

Time: 00:26 (05:26 UTC)


TAF: missing

Weather observations and forecasts of more than 4000 airports (METAR and TAF reports).

The available stations are represented by yellow and red dots on the map.

Hover mouse over dot to see the name of the station.

Then click to see weather observations and forecasts.

To change the map : click on the green buttons with a black cross to zoom in, on the green button with a dash to zoom out, or on the green arrows for adjacent maps.


METAR-TAF: